createdAt,value
2023-04-22T00:00:43.595Z,94999.41
2023-04-22T00:03:15.566Z,95003.22
2023-04-22T00:05:47.848Z,95001.66
2023-04-22T00:08:21.985Z,95006.94
2023-04-22T00:10:53.576Z,95001.97
2023-04-22T00:13:25.190Z,94997.75
2023-04-22T00:15:56.895Z,94991.66
2023-04-22T00:18:28.423Z,94999.69
2023-04-22T00:20:59.928Z,94998.16
2023-04-22T00:23:31.574Z,94994.38
2023-04-22T00:26:03.567Z,95000.47
2023-04-22T00:28:35.209Z,94993.59
2023-04-22T00:31:06.781Z,94996.28
2023-04-22T00:33:38.287Z,94992.06
2023-04-22T00:36:09.950Z,94994.34
2023-04-22T00:38:46.357Z,94991.28
2023-04-22T00:41:18.357Z,94990.53
2023-04-22T00:43:51.096Z,94993.19
2023-04-22T00:46:22.961Z,94991.63
2023-04-22T00:48:55.154Z,94985.53
2023-04-22T00:51:27.991Z,94985.13
2023-04-22T00:54:01.853Z,94991.56
2023-04-22T00:56:36.082Z,94991.97
2023-04-22T00:59:09.152Z,94986.22
2023-04-22T01:01:40.716Z,94986.56
2023-04-22T01:04:14.353Z,94987.31
2023-04-22T01:06:47.369Z,94988.88
2023-04-22T01:09:20.649Z,94989.56
2023-04-22T01:11:52.192Z,94989.53
2023-04-22T01:14:24.482Z,94987.66
2023-04-22T01:16:56.069Z,94987.28
2023-04-22T01:19:29.365Z,94983.44
2023-04-22T01:22:02.512Z,94988.81
2023-04-22T01:24:34.745Z,94997.94
2023-04-22T01:27:06.715Z,94997.91
2023-04-22T01:29:38.843Z,94999.44
2023-04-22T01:32:10.752Z,95002.41
2023-04-22T01:34:42.284Z,94991.75
2023-04-22T01:37:13.797Z,94990.63
2023-04-22T01:39:46.853Z,94984.16
2023-04-22T01:42:19.018Z,94987.19
2023-04-22T01:44:50.616Z,94987.94
2023-04-22T01:47:22.154Z,94988.31
2023-04-22T01:49:53.693Z,95000.09
2023-04-22T01:52:27.583Z,94995.50
2023-04-22T01:54:59.201Z,95000.03
2023-04-22T01:57:30.705Z,94995.06
2023-04-22T02:00:02.742Z,94991.28
2023-04-22T02:02:34.522Z,95000.00
2023-04-22T02:05:09.534Z,94997.69
2023-04-22T02:07:41.066Z,95001.88
2023-04-22T02:10:12.704Z,94997.31
2023-04-22T02:12:44.297Z,95001.44
2023-04-22T02:15:16.424Z,94997.59
2023-04-22T02:17:48.591Z,94999.50
2023-04-22T02:20:20.210Z,94994.94
2023-04-22T02:22:51.771Z,95005.97
2023-04-22T02:25:23.353Z,95001.34
2023-04-22T02:27:54.910Z,94997.41
2023-04-22T02:30:26.467Z,95004.19
2023-04-22T02:32:58.070Z,95003.03
2023-04-22T02:35:29.562Z,95005.69
2023-04-22T02:38:01.088Z,95003.81
2023-04-22T02:40:32.576Z,95006.47
2023-04-22T02:43:04.197Z,94996.59
2023-04-22T02:45:35.991Z,94996.19
2023-04-22T02:48:07.899Z,94993.53
2023-04-22T02:50:39.612Z,95000.75
2023-04-22T02:53:11.080Z,94986.59
2023-04-22T02:55:42.793Z,94996.03
2023-04-22T02:58:14.269Z,94992.63
2023-04-22T03:00:45.828Z,94993.69
2023-04-22T03:03:17.490Z,94987.97
2023-04-22T03:05:49.214Z,94990.66
2023-04-22T03:08:20.908Z,94993.28
2023-04-22T03:10:52.531Z,94986.03
2023-04-22T03:13:24.012Z,94984.09
2023-04-22T03:15:56.490Z,94984.38
2023-04-22T03:18:27.944Z,94985.88
2023-04-22T03:21:00.896Z,94981.59
2023-04-22T03:23:32.630Z,94976.56
2023-04-22T03:26:04.295Z,94978.03
2023-04-22T03:28:36.150Z,94971.16
2023-04-22T03:31:07.771Z,94981.75
2023-04-22T03:33:39.289Z,94978.25
2023-04-22T03:36:10.835Z,94982.75
2023-04-22T03:38:42.309Z,94987.72
2023-04-22T03:41:13.762Z,94993.78
2023-04-22T03:43:45.202Z,94994.91
2023-04-22T03:46:16.902Z,94989.19
2023-04-22T03:48:48.435Z,94987.69
2023-04-22T03:51:19.984Z,94992.63
2023-04-22T03:53:51.556Z,94985.03
2023-04-22T03:56:24.424Z,94986.84
2023-04-22T03:58:56.299Z,94986.81
2023-04-22T04:01:27.783Z,94998.94
2023-04-22T04:03:59.512Z,94995.81
2023-04-22T04:06:31.908Z,95005.53
2023-04-22T04:09:04.035Z,94999.38
2023-04-22T04:11:35.559Z,95005.16
2023-04-22T04:14:08.046Z,95000.31
2023-04-22T04:16:39.517Z,94996.53
2023-04-22T04:19:11.124Z,94993.88
2023-04-22T04:21:43.412Z,94998.81
2023-04-22T04:24:15.067Z,94987.78
2023-04-22T04:26:47.257Z,94983.63
2023-04-22T04:29:21.530Z,94982.13
2023-04-22T04:31:53.209Z,94987.03
2023-04-22T04:34:25.618Z,94987.78
2023-04-22T04:36:56.989Z,94991.63
2023-04-22T04:39:28.672Z,94997.34
2023-04-22T04:42:00.546Z,94995.53
2023-04-22T04:44:32.195Z,94995.81
2023-04-22T04:49:40.604Z,95005.63
2023-04-22T04:52:12.457Z,95001.13
2023-04-22T04:54:44.008Z,95003.88
2023-04-22T04:57:16.201Z,94996.03
2023-04-22T04:59:47.730Z,95003.75
2023-04-22T05:02:19.307Z,95005.34
2023-04-22T05:04:51.072Z,94992.16
2023-04-22T05:07:22.675Z,94990.38
2023-04-22T05:09:54.204Z,94986.25
2023-04-22T05:12:25.699Z,94986.00
2023-04-22T05:14:57.182Z,94983.38
2023-04-22T05:17:28.885Z,94981.13
2023-04-22T05:20:00.428Z,94989.59
2023-04-22T05:22:31.922Z,94992.69
2023-04-22T05:25:04.403Z,94991.63
2023-04-22T05:27:35.763Z,94997.47
2023-04-22T05:30:08.001Z,94998.25
2023-04-22T05:32:39.516Z,94999.09
2023-04-22T05:35:14.049Z,94998.00
2023-04-22T05:37:47.582Z,95005.72
2023-04-22T05:40:19.368Z,95010.28
2023-04-22T05:42:50.850Z,95011.69
2023-04-22T05:45:22.309Z,95016.63
2023-04-22T05:47:53.828Z,95013.72
2023-04-22T05:50:25.828Z,95018.16
2023-04-22T05:52:57.370Z,95024.44
2023-04-22T05:55:28.882Z,95021.81
2023-04-22T05:58:00.504Z,95033.69
2023-04-22T06:00:33.290Z,95040.09
2023-04-22T06:03:05.020Z,95037.44
2023-04-22T06:05:36.747Z,95030.94
2023-04-22T06:08:08.326Z,95036.34
2023-04-22T06:10:39.835Z,95037.91
2023-04-22T06:13:11.661Z,95042.13
2023-04-22T06:15:43.214Z,95037.97
2023-04-22T06:18:14.807Z,95035.31
2023-04-22T06:20:46.327Z,95033.44
2023-04-22T06:23:17.851Z,95042.22
2023-04-22T06:25:49.404Z,95034.22
2023-04-22T06:28:21.107Z,95033.47
2023-04-22T06:30:52.665Z,95029.28
2023-04-22T06:33:24.259Z,95036.53
2023-04-22T06:35:55.720Z,95034.22
2023-04-22T06:38:27.342Z,95036.88
2023-04-22T06:40:58.792Z,95045.25
2023-04-22T06:43:30.271Z,95036.03
2023-04-22T06:46:01.741Z,95039.09
2023-04-22T06:48:33.248Z,95038.28
2023-04-22T06:51:04.777Z,95040.94
2023-04-22T06:53:36.314Z,95032.88
2023-04-22T06:56:07.832Z,95034.00
2023-04-22T06:58:39.359Z,95032.81
2023-04-22T07:01:10.862Z,95030.47
2023-04-22T07:03:42.487Z,95027.03
2023-04-22T07:06:14.133Z,95025.50
2023-04-22T07:08:45.675Z,95030.41
2023-04-22T07:11:17.177Z,95032.28
2023-04-22T07:13:48.760Z,95039.94
2023-04-22T07:16:20.271Z,95035.38
2023-04-22T07:18:51.757Z,95029.19
2023-04-22T07:21:23.262Z,95023.38
2023-04-22T07:23:54.779Z,95022.63
2023-04-22T07:26:26.350Z,95013.44
2023-04-22T07:28:58.144Z,95022.59
2023-04-22T07:31:29.744Z,95021.38
2023-04-22T07:34:01.254Z,95015.94
2023-04-22T07:36:33.170Z,95017.06
2023-04-22T07:39:04.717Z,95009.72
2023-04-22T07:41:36.425Z,95010.03
2023-04-22T07:44:07.973Z,95008.03
2023-04-22T07:46:39.580Z,95006.13
2023-04-22T07:49:13.880Z,95018.31
2023-04-22T07:51:45.820Z,95012.47
2023-04-22T07:54:17.343Z,95012.78
2023-04-22T07:56:48.856Z,95018.44
2023-04-22T07:59:20.323Z,95013.81
2023-04-22T08:01:51.809Z,95014.06
2023-04-22T08:04:23.987Z,95016.56
2023-04-22T08:06:56.137Z,95023.84
2023-04-22T08:09:27.613Z,95017.88
2023-04-22T08:11:59.143Z,95023.63
2023-04-22T08:14:30.596Z,95020.75
2023-04-22T08:17:02.046Z,95017.22
2023-04-22T08:19:33.542Z,95015.16
2023-04-22T08:22:05.034Z,95013.44
2023-04-22T08:24:36.485Z,95012.69
2023-04-22T08:27:08.188Z,95014.03
2023-04-22T08:29:39.835Z,95016.16
2023-04-22T08:32:11.616Z,95021.06
2023-04-22T08:34:43.909Z,95021.59
2023-04-22T08:37:15.977Z,95017.56
2023-04-22T08:39:47.450Z,95013.81
2023-04-22T08:42:20.910Z,95019.41
2023-04-22T08:44:53.729Z,95011.94
2023-04-22T08:47:25.657Z,95016.16
2023-04-22T08:49:58.831Z,95016.03
2023-04-22T08:52:31.307Z,95006.28
2023-04-22T08:55:02.807Z,95004.50
2023-04-22T08:57:36.466Z,95004.75
2023-04-22T09:00:11.219Z,95003.50
2023-04-22T09:02:45.796Z,95002.78
2023-04-22T09:05:18.216Z,94998.31
2023-04-22T09:07:49.853Z,94997.75
2023-04-22T09:10:21.372Z,94996.19
2023-04-22T09:12:54.424Z,94997.88
2023-04-22T09:15:25.945Z,94995.97
2023-04-22T09:17:58.647Z,94997.31
2023-04-22T09:20:30.406Z,94993.91
2023-04-22T09:23:04.158Z,94984.84
2023-04-22T09:25:36.134Z,94992.88
2023-04-22T09:28:13.028Z,94988.97
2023-04-22T09:30:46.066Z,94980.34
2023-04-22T09:33:17.786Z,94988.69
2023-04-22T09:35:49.291Z,94981.09
2023-04-22T09:38:20.906Z,94979.28
2023-04-22T09:40:52.389Z,94975.66
2023-04-22T09:43:23.899Z,94982.34
2023-04-22T09:45:59.775Z,94975.00
2023-04-22T09:48:31.342Z,94973.19
2023-04-22T09:51:15.668Z,94967.25
2023-04-22T09:53:59.430Z,94966.28
2023-04-22T09:56:48.234Z,94962.97
2023-04-22T09:59:20.533Z,94960.69
2023-04-22T10:01:55.618Z,94949.66
2023-04-22T10:04:27.438Z,94953.56
2023-04-22T10:06:59.851Z,94953.69
2023-04-22T10:09:31.377Z,94949.00
2023-04-22T10:12:03.317Z,94951.09
2023-04-22T10:14:34.856Z,94946.75
2023-04-22T10:17:07.303Z,94933.94
2023-04-22T10:19:40.838Z,94943.50
2023-04-22T10:22:13.340Z,94941.41
2023-04-22T10:24:47.714Z,94938.84
2023-04-22T10:27:22.334Z,94941.91
2023-04-22T10:29:56.633Z,94938.09
2023-04-22T10:32:28.210Z,94940.69
2023-04-22T10:35:14.488Z,94927.81
2023-04-22T10:37:46.274Z,94933.97
2023-04-22T10:40:18.748Z,94941.00
2023-04-22T10:42:52.692Z,94935.50
2023-04-22T10:45:26.410Z,94928.16
2023-04-22T10:48:03.888Z,94919.19
2023-04-22T10:50:36.006Z,94914.88
2023-04-22T10:53:30.074Z,94911.03
2023-04-22T10:56:03.061Z,94904.91
2023-04-22T10:58:34.569Z,94912.34
2023-04-22T11:01:14.822Z,94915.38
2023-04-22T11:03:46.518Z,94910.84
2023-04-22T11:06:22.243Z,94907.72
2023-04-22T11:09:09.313Z,94905.16
2023-04-22T11:11:41.198Z,94907.59
2023-04-22T11:14:12.873Z,94899.59
2023-04-22T11:16:47.958Z,94900.81
2023-04-22T11:19:19.492Z,94903.97
2023-04-22T11:21:52.962Z,94898.78
2023-04-22T11:24:24.444Z,94897.06
2023-04-22T11:26:56.991Z,94902.78
2023-04-22T11:29:28.474Z,94900.09
2023-04-22T11:31:59.995Z,94899.91
2023-04-22T11:34:31.567Z,94904.03
2023-04-22T11:37:03.766Z,94905.97
2023-04-22T11:39:39.932Z,94908.00
2023-04-22T11:42:22.687Z,94912.84
2023-04-22T11:44:54.273Z,94908.31
2023-04-22T11:47:30.255Z,94901.81
2023-04-22T11:50:05.202Z,94897.81
2023-04-22T11:52:45.609Z,94898.34
2023-04-22T11:55:23.343Z,94898.47
2023-04-22T11:57:56.281Z,94898.38
2023-04-22T12:00:37.295Z,94899.50
2023-04-22T12:03:09.068Z,94898.19
2023-04-22T12:05:41.857Z,94898.19
2023-04-22T12:08:17.511Z,94897.06
2023-04-22T12:10:56.080Z,94891.97
2023-04-22T12:13:47.901Z,94898.00
2023-04-22T12:16:20.107Z,94894.59
2023-04-22T12:18:53.883Z,94888.91
2023-04-22T12:21:28.369Z,94886.56
2023-04-22T12:23:59.978Z,94892.19
2023-04-22T12:26:31.897Z,94892.19
2023-04-22T12:29:04.624Z,94891.91
2023-04-22T12:31:36.201Z,94885.94
2023-04-22T12:34:07.790Z,94889.53
2023-04-22T12:36:39.314Z,94882.66
2023-04-22T12:39:10.794Z,94889.50
2023-04-22T12:41:42.348Z,94885.69
2023-04-22T12:44:13.904Z,94884.41
2023-04-22T12:46:46.509Z,94888.75
2023-04-22T12:49:18.222Z,94884.28
2023-04-22T12:51:49.931Z,94880.06
2023-04-22T12:54:22.144Z,94877.59
2023-04-22T12:56:53.638Z,94879.56
2023-04-22T12:59:25.324Z,94878.63
2023-04-22T13:01:57.264Z,94875.16
2023-04-22T13:04:28.883Z,94877.97
2023-04-22T13:07:00.541Z,94866.56
2023-04-22T13:09:32.101Z,94858.78
2023-04-22T13:12:03.685Z,94860.19
2023-04-22T13:14:35.390Z,94849.69
2023-04-22T13:17:06.954Z,94858.47
2023-04-22T13:19:38.682Z,94857.41
2023-04-22T13:22:10.305Z,94848.50
2023-04-22T13:24:41.912Z,94839.06
2023-04-22T13:27:13.584Z,94843.38
2023-04-22T13:29:45.558Z,94846.28
2023-04-22T13:32:17.240Z,94836.44
2023-04-22T13:34:48.810Z,94830.78
2023-04-22T13:37:21.371Z,94838.66
2023-04-22T13:39:52.903Z,94833.66
2023-04-22T13:42:24.386Z,94837.97
2023-04-22T13:44:55.912Z,94825.63
2023-04-22T13:47:27.422Z,94828.66
2023-04-22T13:50:00.762Z,94824.25
2023-04-22T13:52:32.378Z,94822.03
2023-04-22T13:55:04.372Z,94817.94
2023-04-22T13:57:35.868Z,94823.31
2023-04-22T14:00:09.407Z,94815.91
2023-04-22T14:02:41.158Z,94812.19
2023-04-22T14:05:12.657Z,94808.09
2023-04-22T14:07:44.180Z,94811.28
2023-04-22T14:10:17.781Z,94813.00
2023-04-22T14:12:50.959Z,94811.16
2023-04-22T14:15:22.770Z,94807.84
2023-04-22T14:17:54.358Z,94809.28
2023-04-22T14:20:25.918Z,94805.66
2023-04-22T14:22:57.404Z,94804.16
2023-04-22T14:25:28.925Z,94800.59
2023-04-22T14:28:02.129Z,94791.31
2023-04-22T14:30:33.726Z,94786.50
2023-04-22T14:33:08.081Z,94797.72
2023-04-22T14:35:39.914Z,94791.41
2023-04-22T14:38:12.333Z,94788.25
2023-04-22T14:40:44.224Z,94784.00
2023-04-22T14:43:16.921Z,94779.59
2023-04-22T14:45:48.513Z,94789.69
2023-04-22T14:48:20.107Z,94798.69
2023-04-22T14:50:51.688Z,94790.22
2023-04-22T14:53:23.280Z,94792.19
2023-04-22T14:55:55.782Z,94790.00
2023-04-22T14:58:31.110Z,94790.72
2023-04-22T15:01:02.709Z,94784.34
2023-04-22T15:03:35.774Z,94790.94
2023-04-22T15:06:07.651Z,94789.00
2023-04-22T15:08:40.033Z,94786.38
2023-04-22T15:11:11.621Z,94786.94
2023-04-22T15:13:43.200Z,94781.94
2023-04-22T15:16:14.594Z,94780.97
2023-04-22T15:18:46.226Z,94775.94
2023-04-22T15:21:17.719Z,94777.13
2023-04-22T15:23:49.248Z,94779.50
2023-04-22T15:26:20.775Z,94774.31
2023-04-22T15:28:52.297Z,94782.06
2023-04-22T15:31:23.834Z,94784.13
2023-04-22T15:33:55.422Z,94783.94
2023-04-22T15:36:26.969Z,94787.44
2023-04-22T15:38:59.394Z,94784.41
2023-04-22T15:41:32.080Z,94787.06
2023-04-22T15:44:05.134Z,94789.44
2023-04-22T15:46:37.757Z,94791.22
2023-04-22T15:49:09.244Z,94796.66
2023-04-22T15:51:40.942Z,94795.38
2023-04-22T15:54:12.905Z,94791.25
2023-04-22T15:56:44.485Z,94796.91
2023-04-22T15:59:16.056Z,94802.28
2023-04-22T16:01:48.999Z,94806.09
2023-04-22T16:04:21.482Z,94798.16
2023-04-22T16:06:53.362Z,94802.25
2023-04-22T16:09:24.748Z,94808.81
2023-04-22T16:11:56.772Z,94808.56
2023-04-22T16:14:28.272Z,94799.50
2023-04-22T16:16:59.867Z,94815.88
2023-04-22T16:19:31.424Z,94814.50
2023-04-22T16:22:03.028Z,94809.72
2023-04-22T16:24:34.533Z,94808.75
2023-04-22T16:27:06.838Z,94801.50
2023-04-22T16:29:38.496Z,94807.03
2023-04-22T16:32:10.209Z,94799.44
2023-04-22T16:34:41.858Z,94794.75
2023-04-22T16:37:13.467Z,94793.50
2023-04-22T16:39:45.399Z,94789.41
2023-04-22T16:42:17.019Z,94797.94
2023-04-22T16:44:48.609Z,94787.97
2023-04-22T16:47:20.214Z,94791.16
2023-04-22T16:49:51.807Z,94793.50
2023-04-22T16:52:23.370Z,94795.69
2023-04-22T16:54:54.911Z,94796.09
2023-04-22T16:57:26.475Z,94795.31
2023-04-22T16:59:58.097Z,94792.06
2023-04-22T17:02:29.742Z,94795.91
2023-04-22T17:05:02.520Z,94791.22
2023-04-22T17:07:34.025Z,94789.31
2023-04-22T17:10:06.320Z,94797.81
2023-04-22T17:12:37.793Z,94798.19
2023-04-22T17:15:09.694Z,94793.69
2023-04-22T17:17:41.308Z,94798.66
2023-04-22T17:20:12.838Z,94794.00
2023-04-22T17:22:44.906Z,94798.69
2023-04-22T17:25:16.533Z,94797.47
2023-04-22T17:27:48.040Z,94801.06
2023-04-22T17:30:19.582Z,94800.31
2023-04-22T17:32:51.180Z,94804.22
2023-04-22T17:35:22.783Z,94802.19
2023-04-22T17:37:54.418Z,94807.31
2023-04-22T17:40:26.345Z,94804.56
2023-04-22T17:42:57.672Z,94811.59
2023-04-22T17:45:29.172Z,94804.34
2023-04-22T17:48:00.829Z,94806.56
2023-04-22T17:50:32.346Z,94816.59
2023-04-22T17:53:03.808Z,94808.13
2023-04-22T17:55:35.414Z,94801.25
2023-04-22T17:58:06.935Z,94812.03
2023-04-22T18:00:38.652Z,94813.63
2023-04-22T18:03:10.399Z,94816.28
2023-04-22T18:05:44.489Z,94826.72
2023-04-22T18:08:16.029Z,94824.97
2023-04-22T18:10:47.554Z,94830.75
2023-04-22T18:13:19.069Z,94832.63
2023-04-22T18:15:50.600Z,94827.94
2023-04-22T18:18:22.141Z,94828.63
2023-04-22T18:20:53.798Z,94841.28
2023-04-22T18:23:25.278Z,94835.34
2023-04-22T18:25:56.787Z,94840.88
2023-04-22T18:28:28.406Z,94839.59
2023-04-22T18:30:59.924Z,94845.53
2023-04-22T18:33:31.469Z,94846.53
2023-04-22T18:36:03.224Z,94841.22
2023-04-22T18:38:34.919Z,94852.59
2023-04-22T18:41:06.798Z,94850.41
2023-04-22T18:43:38.344Z,94847.81
2023-04-22T18:46:09.909Z,94857.22
2023-04-22T18:48:41.548Z,94857.22
2023-04-22T18:51:13.564Z,94856.97
2023-04-22T18:53:44.982Z,94860.13
2023-04-22T18:56:16.539Z,94868.56
2023-04-22T18:58:48.260Z,94872.41
2023-04-22T19:01:19.933Z,94869.38
2023-04-22T19:03:51.503Z,94870.56
2023-04-22T19:06:23.091Z,94881.03
2023-04-22T19:08:55.987Z,94885.78
2023-04-22T19:11:27.829Z,94883.50
2023-04-22T19:14:01.846Z,94893.13
2023-04-22T19:16:33.592Z,94889.00
2023-04-22T19:19:05.438Z,94895.59
2023-04-22T19:21:38.048Z,94903.25
2023-04-22T19:24:09.846Z,94894.41
2023-04-22T19:26:41.451Z,94897.41
2023-04-22T19:29:16.161Z,94908.19
2023-04-22T19:31:47.730Z,94911.44
2023-04-22T19:34:19.434Z,94911.44
2023-04-22T19:36:51.235Z,94918.09
2023-04-22T19:39:22.934Z,94925.13
2023-04-22T19:41:54.391Z,94928.03
2023-04-22T19:44:26.025Z,94923.81
2023-04-22T19:46:58.115Z,94931.84
2023-04-22T19:49:31.781Z,94931.94
2023-04-22T19:52:03.605Z,94935.16
2023-04-22T19:54:36.887Z,94930.06
2023-04-22T19:57:10.408Z,94935.47
2023-04-22T19:59:42.495Z,94947.00
2023-04-22T20:02:15.507Z,94950.53
2023-04-22T20:04:47.260Z,94943.78
2023-04-22T20:07:19.649Z,94950.09
2023-04-22T20:09:52.276Z,94945.22
2023-04-22T20:12:24.170Z,94952.84
2023-04-22T20:14:57.556Z,94956.28
2023-04-22T20:17:35.560Z,94952.41
2023-04-22T20:20:13.733Z,94954.59
2023-04-22T20:22:46.097Z,94947.41
2023-04-22T20:25:17.734Z,94945.91
2023-04-22T20:27:51.303Z,94954.06
2023-04-22T20:30:23.142Z,94940.41
2023-04-22T20:32:54.874Z,94944.41
2023-04-22T20:35:26.647Z,94947.97
2023-04-22T20:38:03.021Z,94946.88
2023-04-22T20:40:35.726Z,94948.38
2023-04-22T20:43:07.777Z,94953.22
2023-04-22T20:45:39.453Z,94945.47
2023-04-22T20:48:11.390Z,94947.16
2023-04-22T20:50:43.915Z,94949.13
2023-04-22T20:53:15.898Z,94944.25
2023-04-22T20:55:47.595Z,94941.19
2023-04-22T20:58:19.401Z,94947.69
2023-04-22T21:00:52.064Z,94944.28
2023-04-22T21:03:26.639Z,94946.22
2023-04-22T21:05:59.979Z,94955.97
2023-04-22T21:08:33.885Z,94951.03
2023-04-22T21:11:05.990Z,94952.66
2023-04-22T21:13:37.769Z,94955.13
2023-04-22T21:16:10.444Z,94951.75
2023-04-22T21:18:44.643Z,94959.94
2023-04-22T21:21:17.893Z,94948.09
2023-04-22T21:23:49.752Z,94941.94
2023-04-22T21:26:22.195Z,94947.25
2023-04-22T21:28:54.055Z,94948.84
2023-04-22T21:31:27.060Z,94954.22
2023-04-22T21:34:00.452Z,94955.78
2023-04-22T21:36:32.797Z,94961.09
2023-04-22T21:39:04.531Z,94963.81
2023-04-22T21:41:36.083Z,94962.31
2023-04-22T21:44:07.614Z,94962.69
2023-04-22T21:46:39.150Z,94964.25
2023-04-22T21:49:11.815Z,94966.59
2023-04-22T21:51:43.412Z,94958.59
2023-04-22T21:54:14.954Z,94967.47
2023-04-22T21:56:46.611Z,94965.97
2023-04-22T21:59:18.169Z,94965.97
2023-04-22T22:01:50.064Z,94966.91
2023-04-22T22:04:22.054Z,94978.75
2023-04-22T22:06:53.752Z,94961.56
2023-04-22T22:09:26.458Z,94965.50
2023-04-22T22:11:58.030Z,94966.59
2023-04-22T22:14:29.661Z,94963.84
2023-04-22T22:17:01.553Z,94956.91
2023-04-22T22:19:34.035Z,94954.94
2023-04-22T22:22:05.765Z,94955.66
2023-04-22T22:24:37.303Z,94963.63
2023-04-22T22:27:09.827Z,94961.72
2023-04-22T22:29:41.484Z,94964.00
2023-04-22T22:32:14.282Z,94964.34
2023-04-22T22:34:45.958Z,94964.78
2023-04-22T22:37:17.647Z,94975.22
2023-04-22T22:39:49.215Z,94975.22
2023-04-22T22:42:20.791Z,94968.63
2023-04-22T22:44:52.404Z,94966.69
2023-04-22T22:47:25.312Z,94972.06
2023-04-22T22:49:57.060Z,94970.94
2023-04-22T22:52:28.839Z,94978.25
2023-04-22T22:55:00.419Z,94974.50
2023-04-22T22:57:31.991Z,94977.94
2023-04-22T23:00:05.819Z,94978.03
2023-04-22T23:02:37.526Z,94978.44
2023-04-22T23:05:10.862Z,94976.19
2023-04-22T23:07:42.573Z,94979.59
2023-04-22T23:10:14.025Z,94980.03
2023-04-22T23:12:45.734Z,94983.94
2023-04-22T23:15:17.246Z,94982.41
2023-04-22T23:17:50.760Z,94981.63
2023-04-22T23:20:22.346Z,94979.78
2023-04-22T23:22:54.564Z,94989.88
2023-04-22T23:25:26.088Z,94984.91
2023-04-22T23:27:57.898Z,94978.78
2023-04-22T23:30:29.745Z,94974.56
2023-04-22T23:33:04.307Z,94976.13
2023-04-22T23:35:37.457Z,94979.28
2023-04-22T23:38:09.676Z,94973.63
2023-04-22T23:40:41.108Z,94972.47
2023-04-22T23:43:12.678Z,94975.66
2023-04-22T23:45:44.564Z,94977.19
2023-04-22T23:48:16.073Z,94969.88
2023-04-22T23:50:47.560Z,94978.66
2023-04-22T23:53:19.056Z,94971.38
2023-04-22T23:55:50.819Z,94973.06
2023-04-22T23:58:22.499Z,94974.16
